sensor_id;sensor_type;location;lat;lon;timestamp;pressure;altitude;pressure_sealevel;temperature;humidity
10948;BME280;5526;42.070;24.752;2023-11-21T00:00:15;98774.22;;;11.27;60.22
10948;BME280;5526;42.070;24.752;2023-11-21T00:02:43;98780.56;;;11.26;60.02
10948;BME280;5526;42.070;24.752;2023-11-21T00:05:11;98785.56;;;11.27;60.38
10948;BME280;5526;42.070;24.752;2023-11-21T00:07:39;98788.97;;;11.28;60.00
10948;BME280;5526;42.070;24.752;2023-11-21T00:10:09;98790.56;;;11.29;60.47
10948;BME280;5526;42.070;24.752;2023-11-21T00:12:37;98791.38;;;11.19;60.65
10948;BME280;5526;42.070;24.752;2023-11-21T00:15:08;98787.94;;;11.19;61.33
10948;BME280;5526;42.070;24.752;2023-11-21T00:17:36;98787.94;;;11.14;60.92
10948;BME280;5526;42.070;24.752;2023-11-21T00:20:05;98786.06;;;11.14;60.84
10948;BME280;5526;42.070;24.752;2023-11-21T00:22:33;98781.06;;;11.13;61.30
10948;BME280;5526;42.070;24.752;2023-11-21T00:25:01;98782.91;;;11.12;61.13
10948;BME280;5526;42.070;24.752;2023-11-21T00:27:30;98776.34;;;11.15;60.98
10948;BME280;5526;42.070;24.752;2023-11-21T00:29:58;98774.75;;;11.14;60.88
10948;BME280;5526;42.070;24.752;2023-11-21T00:32:25;98776.84;;;11.12;60.94
10948;BME280;5526;42.070;24.752;2023-11-21T00:34:52;98766.84;;;11.04;60.54
10948;BME280;5526;42.070;24.752;2023-11-21T00:37:20;98771.59;;;11.12;60.65
10948;BME280;5526;42.070;24.752;2023-11-21T00:39:47;98769.50;;;11.14;60.35
10948;BME280;5526;42.070;24.752;2023-11-21T00:42:14;98762.09;;;11.16;60.37
10948;BME280;5526;42.070;24.752;2023-11-21T00:44:42;98769.75;;;11.17;60.47
10948;BME280;5526;42.070;24.752;2023-11-21T00:47:09;98770.25;;;11.14;60.09
10948;BME280;5526;42.070;24.752;2023-11-21T00:49:36;98773.44;;;11.16;59.97
10948;BME280;5526;42.070;24.752;2023-11-21T00:52:05;98768.19;;;11.16;60.36
10948;BME280;5526;42.070;24.752;2023-11-21T00:54:32;98765.78;;;11.05;60.64
10948;BME280;5526;42.070;24.752;2023-11-21T00:56:59;98769.19;;;10.95;60.57
10948;BME280;5526;42.070;24.752;2023-11-21T00:59:26;98773.91;;;10.83;61.59
10948;BME280;5526;42.070;24.752;2023-11-21T01:01:54;98778.91;;;10.75;61.92
10948;BME280;5526;42.070;24.752;2023-11-21T01:04:21;98771.25;;;10.68;61.75
10948;BME280;5526;42.070;24.752;2023-11-21T01:06:48;98769.34;;;10.54;62.28
10948;BME280;5526;42.070;24.752;2023-11-21T01:09:15;98770.66;;;10.51;62.98
10948;BME280;5526;42.070;24.752;2023-11-21T01:11:44;98776.72;;;10.52;63.27
10948;BME280;5526;42.070;24.752;2023-11-21T01:14:11;98778.53;;;10.46;63.17
10948;BME280;5526;42.070;24.752;2023-11-21T01:16:39;98777.19;;;10.39;63.86
10948;BME280;5526;42.070;24.752;2023-11-21T01:19:07;98784.03;;;10.40;64.33
10948;BME280;5526;42.070;24.752;2023-11-21T01:21:34;98776.66;;;10.42;64.19
10948;BME280;5526;42.070;24.752;2023-11-21T01:24:02;98777.72;;;10.41;64.28
10948;BME280;5526;42.070;24.752;2023-11-21T01:26:33;98770.88;;;10.40;64.52
10948;BME280;5526;42.070;24.752;2023-11-21T01:29:00;98758.25;;;10.37;64.49
10948;BME280;5526;42.070;24.752;2023-11-21T01:31:27;98771.38;;;10.32;64.58
10948;BME280;5526;42.070;24.752;2023-11-21T01:33:55;98772.41;;;10.31;64.98
10948;BME280;5526;42.070;24.752;2023-11-21T01:36:30;98762.94;;;10.30;65.22
10948;BME280;5526;42.070;24.752;2023-11-21T01:38:57;98776.00;;;10.15;65.21
10948;BME280;5526;42.070;24.752;2023-11-21T01:41:25;98767.00;;;10.01;65.64
10948;BME280;5526;42.070;24.752;2023-11-21T01:43:52;98768.53;;;9.97;65.48
10948;BME280;5526;42.070;24.752;2023-11-21T01:46:20;98768.19;;;9.83;66.09
10948;BME280;5526;42.070;24.752;2023-11-21T01:48:48;98763.38;;;9.70;66.40
10948;BME280;5526;42.070;24.752;2023-11-21T01:51:16;98774.44;;;9.72;67.17
10948;BME280;5526;42.070;24.752;2023-11-21T01:53:46;98775.72;;;9.70;67.06
10948;BME280;5526;42.070;24.752;2023-11-21T01:56:13;98775.41;;;9.61;67.86
10948;BME280;5526;42.070;24.752;2023-11-21T01:58:42;98770.88;;;9.57;67.46
10948;BME280;5526;42.070;24.752;2023-11-21T02:01:09;98754.56;;;9.50;68.00
10948;BME280;5526;42.070;24.752;2023-11-21T02:03:36;98768.00;;;9.53;68.30
10948;BME280;5526;42.070;24.752;2023-11-21T02:06:04;98770.56;;;9.43;68.25
10948;BME280;5526;42.070;24.752;2023-11-21T02:08:32;98767.09;;;9.38;68.89
10948;BME280;5526;42.070;24.752;2023-11-21T02:11:00;98760.19;;;9.32;69.35
10948;BME280;5526;42.070;24.752;2023-11-21T02:13:28;98764.84;;;9.20;70.91
10948;BME280;5526;42.070;24.752;2023-11-21T02:15:55;98766.88;;;9.13;71.25
10948;BME280;5526;42.070;24.752;2023-11-21T02:18:23;98764.63;;;8.95;72.62
10948;BME280;5526;42.070;24.752;2023-11-21T02:20:50;98772.16;;;8.91;74.46
10948;BME280;5526;42.070;24.752;2023-11-21T02:23:18;98766.88;;;8.86;74.45
10948;BME280;5526;42.070;24.752;2023-11-21T02:25:45;98758.97;;;8.81;75.08
10948;BME280;5526;42.070;24.752;2023-11-21T02:28:13;98766.47;;;8.72;75.76
10948;BME280;5526;42.070;24.752;2023-11-21T02:30:42;98766.00;;;8.75;75.30
10948;BME280;5526;42.070;24.752;2023-11-21T02:33:09;98765.44;;;8.73;76.09
10948;BME280;5526;42.070;24.752;2023-11-21T02:35:38;98771.47;;;8.74;75.76
10948;BME280;5526;42.070;24.752;2023-11-21T02:38:05;98772.22;;;8.69;75.86
10948;BME280;5526;42.070;24.752;2023-11-21T02:40:33;98759.84;;;8.65;76.26
10948;BME280;5526;42.070;24.752;2023-11-21T02:43:00;98769.97;;;8.56;77.25
10948;BME280;5526;42.070;24.752;2023-11-21T02:45:27;98766.06;;;8.59;77.21
10948;BME280;5526;42.070;24.752;2023-11-21T02:47:54;98758.63;;;8.51;77.88
10948;BME280;5526;42.070;24.752;2023-11-21T02:50:22;98757.53;;;8.47;78.99
10948;BME280;5526;42.070;24.752;2023-11-21T02:52:49;98767.78;;;8.48;79.06
10948;BME280;5526;42.070;24.752;2023-11-21T02:55:16;98774.38;;;8.51;79.23
10948;BME280;5526;42.070;24.752;2023-11-21T02:57:45;98737.13;;;8.27;79.36
10948;BME280;5526;42.070;24.752;2023-11-21T03:00:12;98786.91;;;8.49;79.88
10948;BME280;5526;42.070;24.752;2023-11-21T03:02:40;98788.78;;;8.48;80.11
10948;BME280;5526;42.070;24.752;2023-11-21T03:05:08;98794.25;;;8.47;79.82
10948;BME280;5526;42.070;24.752;2023-11-21T03:07:36;98787.19;;;8.47;79.75
10948;BME280;5526;42.070;24.752;2023-11-21T03:10:05;98781.81;;;8.37;80.33
10948;BME280;5526;42.070;24.752;2023-11-21T03:12:32;98779.91;;;8.33;80.76
10948;BME280;5526;42.070;24.752;2023-11-21T03:15:00;98777.00;;;8.29;81.78
10948;BME280;5526;42.070;24.752;2023-11-21T03:17:28;98789.00;;;8.25;81.35
10948;BME280;5526;42.070;24.752;2023-11-21T03:19:55;98778.75;;;8.24;82.21
10948;BME280;5526;42.070;24.752;2023-11-21T03:22:23;98777.63;;;8.20;82.44
10948;BME280;5526;42.070;24.752;2023-11-21T03:24:50;98778.69;;;8.19;83.38
10948;BME280;5526;42.070;24.752;2023-11-21T03:27:17;98773.38;;;8.14;83.97
10948;BME280;5526;42.070;24.752;2023-11-21T03:29:44;98782.25;;;8.13;83.91
10948;BME280;5526;42.070;24.752;2023-11-21T03:32:13;98777.00;;;8.13;83.90
10948;BME280;5526;42.070;24.752;2023-11-21T03:34:54;98769.75;;;7.98;84.99
10948;BME280;5526;42.070;24.752;2023-11-21T03:37:22;98783.78;;;8.09;84.92
10948;BME280;5526;42.070;24.752;2023-11-21T03:39:50;98779.34;;;8.09;84.69
10948;BME280;5526;42.070;24.752;2023-11-21T03:42:17;98777.44;;;8.05;85.06
10948;BME280;5526;42.070;24.752;2023-11-21T03:44:44;98776.91;;;8.03;85.55
10948;BME280;5526;42.070;24.752;2023-11-21T03:47:12;98787.44;;;8.08;86.37
10948;BME280;5526;42.070;24.752;2023-11-21T03:49:39;98784.75;;;8.03;85.81
10948;BME280;5526;42.070;24.752;2023-11-21T03:52:06;98784.19;;;8.01;86.23
10948;BME280;5526;42.070;24.752;2023-11-21T03:54:34;98797.53;;;7.99;86.65
10948;BME280;5526;42.070;24.752;2023-11-21T03:57:02;98789.38;;;7.96;86.99
10948;BME280;5526;42.070;24.752;2023-11-21T03:59:29;98765.34;;;7.82;87.09
10948;BME280;5526;42.070;24.752;2023-11-21T04:01:56;98788.03;;;7.93;88.00
10948;BME280;5526;42.070;24.752;2023-11-21T04:04:25;98794.78;;;7.89;87.92
10948;BME280;5526;42.070;24.752;2023-11-21T04:06:52;98800.03;;;7.89;87.71
10948;BME280;5526;42.070;24.752;2023-11-21T04:09:19;98798.50;;;7.93;87.70
10948;BME280;5526;42.070;24.752;2023-11-21T04:11:46;98798.19;;;7.90;87.72
10948;BME280;5526;42.070;24.752;2023-11-21T04:14:13;98801.66;;;7.95;88.08
10948;BME280;5526;42.070;24.752;2023-11-21T04:16:40;98813.44;;;7.93;88.13
10948;BME280;5526;42.070;24.752;2023-11-21T04:19:08;98806.38;;;7.93;87.76
10948;BME280;5526;42.070;24.752;2023-11-21T04:21:37;98803.50;;;7.95;87.65
10948;BME280;5526;42.070;24.752;2023-11-21T04:24:06;98802.94;;;7.93;87.95
10948;BME280;5526;42.070;24.752;2023-11-21T04:26:33;98792.94;;;7.90;88.05
10948;BME280;5526;42.070;24.752;2023-11-21T04:29:00;98793.75;;;7.90;88.11
10948;BME280;5526;42.070;24.752;2023-11-21T04:31:27;98797.41;;;7.89;88.81
10948;BME280;5526;42.070;24.752;2023-11-21T04:33:54;98789.78;;;7.88;88.67
10948;BME280;5526;42.070;24.752;2023-11-21T04:36:21;98793.75;;;7.90;88.70
10948;BME280;5526;42.070;24.752;2023-11-21T04:38:50;98805.50;;;7.88;88.59
10948;BME280;5526;42.070;24.752;2023-11-21T04:41:17;98809.94;;;7.87;89.14
10948;BME280;5526;42.070;24.752;2023-11-21T04:43:44;98809.47;;;7.90;89.30
10948;BME280;5526;42.070;24.752;2023-11-21T04:46:11;98812.66;;;7.92;88.95
10948;BME280;5526;42.070;24.752;2023-11-21T04:48:38;98803.75;;;7.93;89.62
10948;BME280;5526;42.070;24.752;2023-11-21T04:51:05;98802.94;;;7.93;89.07
10948;BME280;5526;42.070;24.752;2023-11-21T04:53:32;98808.25;;;7.98;89.19
10948;BME280;5526;42.070;24.752;2023-11-21T04:56:01;98807.28;;;8.04;89.07
10948;BME280;5526;42.070;24.752;2023-11-21T04:58:29;98804.69;;;8.04;88.58
10948;BME280;5526;42.070;24.752;2023-11-21T05:00:57;98787.03;;;7.99;88.30
10948;BME280;5526;42.070;24.752;2023-11-21T05:03:24;98798.22;;;8.11;88.24
10948;BME280;5526;42.070;24.752;2023-11-21T05:05:51;98808.63;;;8.06;87.87
10948;BME280;5526;42.070;24.752;2023-11-21T05:08:18;98808.69;;;8.11;87.69
10948;BME280;5526;42.070;24.752;2023-11-21T05:10:45;98806.50;;;8.03;87.44
10948;BME280;5526;42.070;24.752;2023-11-21T05:13:14;98807.06;;;8.05;87.04
10948;BME280;5526;42.070;24.752;2023-11-21T05:15:43;98808.47;;;8.13;87.13
10948;BME280;5526;42.070;24.752;2023-11-21T05:18:10;98810.84;;;8.14;86.78
10948;BME280;5526;42.070;24.752;2023-11-21T05:20:39;98811.66;;;8.15;87.35
10948;BME280;5526;42.070;24.752;2023-11-21T05:23:06;98802.84;;;8.21;86.80
10948;BME280;5526;42.070;24.752;2023-11-21T05:25:34;98808.28;;;8.19;85.43
10948;BME280;5526;42.070;24.752;2023-11-21T05:28:01;98815.59;;;8.17;85.67
10948;BME280;5526;42.070;24.752;2023-11-21T05:30:31;98810.59;;;8.16;85.93
10948;BME280;5526;42.070;24.752;2023-11-21T05:32:58;98812.94;;;8.12;86.68
10948;BME280;5526;42.070;24.752;2023-11-21T05:35:25;98812.41;;;8.15;86.71
10948;BME280;5526;42.070;24.752;2023-11-21T05:37:52;98816.41;;;8.18;87.16
10948;BME280;5526;42.070;24.752;2023-11-21T05:40:20;98826.19;;;8.22;86.59
10948;BME280;5526;42.070;24.752;2023-11-21T05:42:47;98823.72;;;8.16;86.97
10948;BME280;5526;42.070;24.752;2023-11-21T05:45:14;98827.28;;;8.10;87.52
10948;BME280;5526;42.070;24.752;2023-11-21T05:47:44;98822.78;;;8.05;88.30
10948;BME280;5526;42.070;24.752;2023-11-21T05:50:13;98824.53;;;8.00;88.55
10948;BME280;5526;42.070;24.752;2023-11-21T05:52:41;98825.34;;;8.00;89.16
10948;BME280;5526;42.070;24.752;2023-11-21T05:55:09;98828.56;;;8.07;89.05
10948;BME280;5526;42.070;24.752;2023-11-21T05:57:37;98828.31;;;8.09;88.31
10948;BME280;5526;42.070;24.752;2023-11-21T06:00:06;98824.28;;;8.18;88.54
10948;BME280;5526;42.070;24.752;2023-11-21T06:02:41;98824.66;;;8.26;88.72
10948;BME280;5526;42.070;24.752;2023-11-21T06:05:09;98816.84;;;8.31;88.15
10948;BME280;5526;42.070;24.752;2023-11-21T06:07:37;98826.69;;;8.41;87.64
10948;BME280;5526;42.070;24.752;2023-11-21T06:10:06;98818.28;;;8.39;89.09
10948;BME280;5526;42.070;24.752;2023-11-21T06:12:37;98817.28;;;8.23;89.66
10948;BME280;5526;42.070;24.752;2023-11-21T06:15:06;98816.81;;;8.26;89.14
10948;BME280;5526;42.070;24.752;2023-11-21T06:17:34;98823.38;;;8.29;89.52
10948;BME280;5526;42.070;24.752;2023-11-21T06:20:03;98820.63;;;8.19;90.05
10948;BME280;5526;42.070;24.752;2023-11-21T06:22:36;98820.94;;;8.22;90.43
10948;BME280;5526;42.070;24.752;2023-11-21T06:25:03;98820.38;;;8.20;90.46
10948;BME280;5526;42.070;24.752;2023-11-21T06:27:31;98822.19;;;8.36;89.81
10948;BME280;5526;42.070;24.752;2023-11-21T06:29:59;98824.25;;;8.56;89.40
10948;BME280;5526;42.070;24.752;2023-11-21T06:32:27;98805.84;;;8.51;89.05
10948;BME280;5526;42.070;24.752;2023-11-21T06:34:55;98814.25;;;8.53;89.37
10948;BME280;5526;42.070;24.752;2023-11-21T06:37:25;98817.84;;;8.47;89.60
10948;BME280;5526;42.070;24.752;2023-11-21T06:39:53;98820.47;;;8.47;89.46
10948;BME280;5526;42.070;24.752;2023-11-21T06:42:22;98824.38;;;8.66;88.97
10948;BME280;5526;42.070;24.752;2023-11-21T06:44:49;98796.63;;;8.48;88.89
10948;BME280;5526;42.070;24.752;2023-11-21T06:47:17;98814.84;;;8.60;89.87
10948;BME280;5526;42.070;24.752;2023-11-21T06:49:46;98805.28;;;8.70;88.99
10948;BME280;5526;42.070;24.752;2023-11-21T06:52:14;98815.50;;;8.93;87.43
10948;BME280;5526;42.070;24.752;2023-11-21T06:54:42;98814.59;;;9.10;87.00
10948;BME280;5526;42.070;24.752;2023-11-21T06:57:10;98818.72;;;9.27;86.53
10948;BME280;5526;42.070;24.752;2023-11-21T06:59:37;98824.03;;;9.32;85.43
10948;BME280;5526;42.070;24.752;2023-11-21T07:02:05;98823.44;;;9.25;86.54
10948;BME280;5526;42.070;24.752;2023-11-21T07:04:32;98823.19;;;9.27;87.26
10948;BME280;5526;42.070;24.752;2023-11-21T07:06:59;98817.34;;;9.20;87.84
10948;BME280;5526;42.070;24.752;2023-11-21T07:09:26;98825.84;;;9.32;88.16
10948;BME280;5526;42.070;24.752;2023-11-21T07:11:54;98826.88;;;9.26;88.72
10948;BME280;5526;42.070;24.752;2023-11-21T07:14:23;98833.97;;;9.04;91.01
10948;BME280;5526;42.070;24.752;2023-11-21T07:16:50;98837.75;;;9.71;87.99
10948;BME280;5526;42.070;24.752;2023-11-21T07:19:18;98837.38;;;9.26;90.22
10948;BME280;5526;42.070;24.752;2023-11-21T07:21:45;98838.66;;;9.02;90.65
10948;BME280;5526;42.070;24.752;2023-11-21T07:24:12;98836.00;;;8.97;90.84
10948;BME280;5526;42.070;24.752;2023-11-21T07:26:39;98840.84;;;8.83;92.04
10948;BME280;5526;42.070;24.752;2023-11-21T07:29:06;98838.03;;;8.68;93.08
10948;BME280;5526;42.070;24.752;2023-11-21T07:31:35;98829.00;;;8.80;92.04
10948;BME280;5526;42.070;24.752;2023-11-21T07:34:02;98835.31;;;8.79;92.08
10948;BME280;5526;42.070;24.752;2023-11-21T07:36:29;98829.13;;;8.91;92.70
10948;BME280;5526;42.070;24.752;2023-11-21T07:38:57;98834.03;;;9.09;91.74
10948;BME280;5526;42.070;24.752;2023-11-21T07:41:24;98827.75;;;9.36;90.35
10948;BME280;5526;42.070;24.752;2023-11-21T07:43:51;98829.81;;;9.34;89.73
10948;BME280;5526;42.070;24.752;2023-11-21T07:46:19;98835.78;;;9.56;89.50
10948;BME280;5526;42.070;24.752;2023-11-21T07:48:49;98839.25;;;9.62;88.94
10948;BME280;5526;42.070;24.752;2023-11-21T07:51:18;98833.06;;;9.78;87.63
10948;BME280;5526;42.070;24.752;2023-11-21T07:53:45;98834.75;;;10.25;85.35
10948;BME280;5526;42.070;24.752;2023-11-21T07:56:12;98835.41;;;10.06;85.94
10948;BME280;5526;42.070;24.752;2023-11-21T07:58:39;98835.09;;;10.02;85.91
10948;BME280;5526;42.070;24.752;2023-11-21T08:01:06;98834.81;;;10.04;85.80
10948;BME280;5526;42.070;24.752;2023-11-21T08:03:33;98838.22;;;9.99;84.76
10948;BME280;5526;42.070;24.752;2023-11-21T08:06:02;98839.34;;;10.08;84.21
10948;BME280;5526;42.070;24.752;2023-11-21T08:08:31;98841.00;;;10.19;82.80
10948;BME280;5526;42.070;24.752;2023-11-21T08:10:58;98837.28;;;10.10;82.66
10948;BME280;5526;42.070;24.752;2023-11-21T08:13:28;98838.56;;;10.08;81.86
10948;BME280;5526;42.070;24.752;2023-11-21T08:15:56;98841.84;;;10.30;80.53
10948;BME280;5526;42.070;24.752;2023-11-21T08:18:28;98849.75;;;10.35;81.03
10948;BME280;5526;42.070;24.752;2023-11-21T08:20:55;98838.81;;;10.58;79.36
10948;BME280;5526;42.070;24.752;2023-11-21T08:23:24;98849.22;;;10.89;77.68
10948;BME280;5526;42.070;24.752;2023-11-21T08:25:52;98835.03;;;11.05;76.60
10948;BME280;5526;42.070;24.752;2023-11-21T08:28:20;98833.47;;;11.04;76.64
10948;BME280;5526;42.070;24.752;2023-11-21T08:30:47;98834.50;;;10.93;76.86
10948;BME280;5526;42.070;24.752;2023-11-21T08:33:14;98823.28;;;11.63;72.44
10948;BME280;5526;42.070;24.752;2023-11-21T08:35:42;98833.47;;;12.24;68.47
10948;BME280;5526;42.070;24.752;2023-11-21T08:38:09;98825.13;;;11.67;71.68
10948;BME280;5526;42.070;24.752;2023-11-21T08:40:38;98824.56;;;11.50;72.72
10948;BME280;5526;42.070;24.752;2023-11-21T08:43:05;98819.81;;;11.32;73.64
10948;BME280;5526;42.070;24.752;2023-11-21T08:45:33;98816.38;;;11.32;73.82
10948;BME280;5526;42.070;24.752;2023-11-21T08:48:01;98819.03;;;11.52;72.98
10948;BME280;5526;42.070;24.752;2023-11-21T08:50:28;98817.19;;;11.57;73.03
10948;BME280;5526;42.070;24.752;2023-11-21T08:52:55;98810.63;;;11.70;72.53
10948;BME280;5526;42.070;24.752;2023-11-21T08:55:22;98808.75;;;11.95;71.88
10948;BME280;5526;42.070;24.752;2023-11-21T08:57:51;98805.56;;;12.08;70.44
10948;BME280;5526;42.070;24.752;2023-11-21T09:00:18;98802.38;;;12.21;69.96
10948;BME280;5526;42.070;24.752;2023-11-21T09:02:46;98791.69;;;12.51;69.00
10948;BME280;5526;42.070;24.752;2023-11-21T09:05:14;98785.53;;;12.76;67.74
10948;BME280;5526;42.070;24.752;2023-11-21T09:07:41;98783.41;;;12.73;67.13
10948;BME280;5526;42.070;24.752;2023-11-21T09:10:09;98780.97;;;12.86;67.21
10948;BME280;5526;42.070;24.752;2023-11-21T09:12:37;98767.50;;;12.88;66.80
10948;BME280;5526;42.070;24.752;2023-11-21T09:15:07;98769.84;;;13.00;65.62
10948;BME280;5526;42.070;24.752;2023-11-21T09:17:35;98768.41;;;13.12;65.37
10948;BME280;5526;42.070;24.752;2023-11-21T09:20:03;98756.97;;;13.27;64.90
10948;BME280;5526;42.070;24.752;2023-11-21T09:22:31;98753.38;;;13.46;63.79
10948;BME280;5526;42.070;24.752;2023-11-21T09:24:58;98750.41;;;13.53;63.46
10948;BME280;5526;42.070;24.752;2023-11-21T09:27:25;98746.94;;;13.57;63.10
10948;BME280;5526;42.070;24.752;2023-11-21T09:29:54;98750.53;;;13.66;62.79
10948;BME280;5526;42.070;24.752;2023-11-21T09:32:22;98745.72;;;13.73;62.12
10948;BME280;5526;42.070;24.752;2023-11-21T09:34:50;98744.16;;;13.72;61.41
10948;BME280;5526;42.070;24.752;2023-11-21T09:37:18;98751.06;;;13.68;61.44
10948;BME280;5526;42.070;24.752;2023-11-21T09:39:45;98744.19;;;13.39;62.00
10948;BME280;5526;42.070;24.752;2023-11-21T09:42:17;98735.06;;;13.50;62.38
10948;BME280;5526;42.070;24.752;2023-11-21T09:44:54;98739.34;;;13.74;61.55
10948;BME280;5526;42.070;24.752;2023-11-21T09:47:25;98726.25;;;13.88;61.04
10948;BME280;5526;42.070;24.752;2023-11-21T09:49:54;98729.16;;;13.91;60.90
10948;BME280;5526;42.070;24.752;2023-11-21T09:52:26;98723.25;;;13.94;60.34
10948;BME280;5526;42.070;24.752;2023-11-21T09:54:53;98733.91;;;13.89;60.66
10948;BME280;5526;42.070;24.752;2023-11-21T09:57:23;98726.72;;;13.95;60.46
10948;BME280;5526;42.070;24.752;2023-11-21T09:59:52;98717.13;;;13.99;59.88
10948;BME280;5526;42.070;24.752;2023-11-21T10:02:27;98708.38;;;14.03;59.83
10948;BME280;5526;42.070;24.752;2023-11-21T10:04:56;98713.53;;;14.13;58.96
10948;BME280;5526;42.070;24.752;2023-11-21T10:07:25;98704.91;;;14.26;58.93
10948;BME280;5526;42.070;24.752;2023-11-21T10:09:53;98694.38;;;14.45;58.87
10948;BME280;5526;42.070;24.752;2023-11-21T10:12:23;98685.50;;;14.54;58.20
10948;BME280;5526;42.070;24.752;2023-11-21T10:14:52;98689.88;;;14.64;57.70
10948;BME280;5526;42.070;24.752;2023-11-21T10:17:23;98683.22;;;14.66;57.45
10948;BME280;5526;42.070;24.752;2023-11-21T10:19:57;98679.56;;;14.81;56.77
10948;BME280;5526;42.070;24.752;2023-11-21T10:22:25;98678.53;;;14.95;56.60
10948;BME280;5526;42.070;24.752;2023-11-21T10:24:53;98672.13;;;14.96;55.84
10948;BME280;5526;42.070;24.752;2023-11-21T10:27:20;98673.78;;;14.92;55.73
10948;BME280;5526;42.070;24.752;2023-11-21T10:29:47;98670.81;;;14.99;55.74
10948;BME280;5526;42.070;24.752;2023-11-21T10:32:14;98666.22;;;15.18;55.41
10948;BME280;5526;42.070;24.752;2023-11-21T10:34:41;98660.56;;;15.24;55.40
10948;BME280;5526;42.070;24.752;2023-11-21T10:37:12;98657.41;;;15.22;55.06
10948;BME280;5526;42.070;24.752;2023-11-21T10:39:41;98659.25;;;15.22;55.26
10948;BME280;5526;42.070;24.752;2023-11-21T10:42:09;98657.94;;;15.06;54.65
10948;BME280;5526;42.070;24.752;2023-11-21T10:44:37;98656.63;;;14.90;54.84
10948;BME280;5526;42.070;24.752;2023-11-21T10:47:04;98660.63;;;14.87;55.27
10948;BME280;5526;42.070;24.752;2023-11-21T10:49:31;98646.53;;;14.92;55.08
10948;BME280;5526;42.070;24.752;2023-11-21T10:51:59;98649.19;;;14.92;54.78
10948;BME280;5526;42.070;24.752;2023-11-21T10:54:27;98646.25;;;14.93;54.82
10948;BME280;5526;42.070;24.752;2023-11-21T10:56:57;98645.59;;;15.01;54.73
10948;BME280;5526;42.070;24.752;2023-11-21T10:59:25;98642.78;;;14.93;53.96
10948;BME280;5526;42.070;24.752;2023-11-21T11:01:57;98644.06;;;14.95;54.41
10948;BME280;5526;42.070;24.752;2023-11-21T11:04:27;98640.84;;;14.98;54.21
10948;BME280;5526;42.070;24.752;2023-11-21T11:06:57;98636.63;;;14.97;53.59
10948;BME280;5526;42.070;24.752;2023-11-21T11:09:27;98633.75;;;14.94;54.29
10948;BME280;5526;42.070;24.752;2023-11-21T11:11:55;98632.63;;;15.00;54.55
10948;BME280;5526;42.070;24.752;2023-11-21T11:14:22;98625.16;;;15.02;53.61
10948;BME280;5526;42.070;24.752;2023-11-21T11:16:54;98614.94;;;14.95;53.59
10948;BME280;5526;42.070;24.752;2023-11-21T11:19:21;98607.19;;;14.99;52.68
10948;BME280;5526;42.070;24.752;2023-11-21T11:21:53;98597.25;;;14.91;52.56
10948;BME280;5526;42.070;24.752;2023-11-21T11:24:42;98584.97;;;14.81;52.85
10948;BME280;5526;42.070;24.752;2023-11-21T11:27:23;98590.63;;;14.75;52.83
10948;BME280;5526;42.070;24.752;2023-11-21T11:30:07;98580.13;;;14.70;53.42
10948;BME280;5526;42.070;24.752;2023-11-21T11:32:46;98565.22;;;14.74;54.23
10948;BME280;5526;42.070;24.752;2023-11-21T11:35:26;98573.53;;;14.67;54.39
10948;BME280;5526;42.070;24.752;2023-11-21T11:37:59;98563.81;;;14.63;54.55
10948;BME280;5526;42.070;24.752;2023-11-21T11:40:38;98551.31;;;14.50;54.95
10948;BME280;5526;42.070;24.752;2023-11-21T11:43:06;98530.22;;;14.45;54.99
10948;BME280;5526;42.070;24.752;2023-11-21T11:45:34;98529.81;;;14.38;55.29
10948;BME280;5526;42.070;24.752;2023-11-21T11:48:06;98509.09;;;14.40;55.29
10948;BME280;5526;42.070;24.752;2023-11-21T11:50:34;98499.94;;;14.51;55.13
10948;BME280;5526;42.070;24.752;2023-11-21T11:53:12;98495.19;;;14.34;55.09
10948;BME280;5526;42.070;24.752;2023-11-21T11:55:42;98493.50;;;14.20;55.64
10948;BME280;5526;42.070;24.752;2023-11-21T11:58:10;98483.22;;;14.18;55.78
10948;BME280;5526;42.070;24.752;2023-11-21T12:00:37;98482.59;;;14.58;54.54
10948;BME280;5526;42.070;24.752;2023-11-21T12:03:07;98479.50;;;14.19;55.23
10948;BME280;5526;42.070;24.752;2023-11-21T12:05:35;98484.47;;;14.26;55.45
10948;BME280;5526;42.070;24.752;2023-11-21T12:08:05;98476.34;;;14.17;55.03
10948;BME280;5526;42.070;24.752;2023-11-21T12:10:34;98482.59;;;14.08;55.25
10948;BME280;5526;42.070;24.752;2023-11-21T12:13:05;98482.97;;;14.01;55.50
10948;BME280;5526;42.070;24.752;2023-11-21T12:15:33;98481.69;;;13.99;55.68
10948;BME280;5526;42.070;24.752;2023-11-21T12:18:00;98476.66;;;13.97;55.46
10948;BME280;5526;42.070;24.752;2023-11-21T12:20:28;98478.41;;;13.88;55.36
10948;BME280;5526;42.070;24.752;2023-11-21T12:22:58;98485.81;;;13.86;55.76
10948;BME280;5526;42.070;24.752;2023-11-21T12:25:27;98480.75;;;13.90;55.68
10948;BME280;5526;42.070;24.752;2023-11-21T12:27:57;98498.41;;;13.94;55.70
10948;BME280;5526;42.070;24.752;2023-11-21T12:30:27;98505.91;;;14.06;55.61
10948;BME280;5526;42.070;24.752;2023-11-21T12:32:57;98518.50;;;14.14;55.42
10948;BME280;5526;42.070;24.752;2023-11-21T12:35:26;98513.88;;;14.24;54.95
10948;BME280;5526;42.070;24.752;2023-11-21T12:37:54;98511.13;;;14.29;54.77
10948;BME280;5526;42.070;24.752;2023-11-21T12:40:23;98503.63;;;14.36;54.79
10948;BME280;5526;42.070;24.752;2023-11-21T12:42:57;98507.88;;;14.51;54.50
10948;BME280;5526;42.070;24.752;2023-11-21T12:45:27;98505.91;;;14.56;54.14
10948;BME280;5526;42.070;24.752;2023-11-21T12:47:55;98502.03;;;14.67;54.33
10948;BME280;5526;42.070;24.752;2023-11-21T12:50:27;98504.81;;;14.76;53.81
10948;BME280;5526;42.070;24.752;2023-11-21T12:52:59;98502.25;;;14.84;53.57
10948;BME280;5526;42.070;24.752;2023-11-21T12:55:30;98505.00;;;14.79;53.95
10948;BME280;5526;42.070;24.752;2023-11-21T12:57:57;98489.53;;;15.00;53.65
10948;BME280;5526;42.070;24.752;2023-11-21T13:00:34;98470.59;;;16.04;49.83
10948;BME280;5526;42.070;24.752;2023-11-21T13:03:04;98462.00;;;15.63;51.15
10948;BME280;5526;42.070;24.752;2023-11-21T13:05:33;98461.63;;;15.29;51.73
10948;BME280;5526;42.070;24.752;2023-11-21T13:08:02;98458.78;;;15.12;52.81
10948;BME280;5526;42.070;24.752;2023-11-21T13:10:33;98462.81;;;14.96;53.05